sensor_id;sensor_type;location;lat;lon;timestamp;temperature;humidity
9175;DHT22;54374;50.196;8.050;2022-09-09T00:02:01;13.40;99.90
9175;DHT22;54374;50.196;8.050;2022-09-09T00:04:31;13.40;99.90
9175;DHT22;54374;50.196;8.050;2022-09-09T00:07:05;13.40;99.90
9175;DHT22;54374;50.196;8.050;2022-09-09T00:09:40;13.40;99.90
9175;DHT22;54374;50.196;8.050;2022-09-09T00:12:15;13.40;99.90
9175;DHT22;54374;50.196;8.050;2022-09-09T00:14:48;13.40;99.90
9175;DHT22;54374;50.196;8.050;2022-09-09T00:17:25;13.30;99.90
9175;DHT22;54374;50.196;8.050;2022-09-09T00:19:58;13.30;99.90
9175;DHT22;54374;50.196;8.050;2022-09-09T00:22:29;13.30;99.90
9175;DHT22;54374;50.196;8.050;2022-09-09T00:25:03;13.30;99.90
9175;DHT22;54374;50.196;8.050;2022-09-09T00:27:41;13.20;99.90
9175;DHT22;54374;50.196;8.050;2022-09-09T00:30:17;13.20;99.90
9175;DHT22;54374;50.196;8.050;2022-09-09T00:32:45;13.20;99.90
9175;DHT22;54374;50.196;8.050;2022-09-09T00:35:18;13.20;99.90
9175;DHT22;54374;50.196;8.050;2022-09-09T00:37:51;13.20;99.90
9175;DHT22;54374;50.196;8.050;2022-09-09T00:40:24;13.20;99.90
9175;DHT22;54374;50.196;8.050;2022-09-09T00:43:09;13.20;99.90
9175;DHT22;54374;50.196;8.050;2022-09-09T00:48:47;13.30;99.90
9175;DHT22;54374;50.196;8.050;2022-09-09T00:51:25;13.20;99.90
9175;DHT22;54374;50.196;8.050;2022-09-09T00:54:13;13.20;99.90
9175;DHT22;54374;50.196;8.050;2022-09-09T00:56:50;13.20;99.90
9175;DHT22;54374;50.196;8.050;2022-09-09T00:59:30;13.20;99.90
9175;DHT22;54374;50.196;8.050;2022-09-09T01:01:59;13.20;99.90
9175;DHT22;54374;50.196;8.050;2022-09-09T01:04:32;13.10;99.90
9175;DHT22;54374;50.196;8.050;2022-09-09T01:07:12;12.90;99.90
9175;DHT22;54374;50.196;8.050;2022-09-09T01:09:50;13.10;99.90
9175;DHT22;54374;50.196;8.050;2022-09-09T01:12:30;13.10;99.90
9175;DHT22;54374;50.196;8.050;2022-09-09T01:15:11;13.00;99.90
9175;DHT22;54374;50.196;8.050;2022-09-09T01:17:52;13.00;99.90
9175;DHT22;54374;50.196;8.050;2022-09-09T01:20:23;12.90;99.90
9175;DHT22;54374;50.196;8.050;2022-09-09T01:23:14;12.90;99.90
9175;DHT22;54374;50.196;8.050;2022-09-09T01:26:13;12.90;99.90
9175;DHT22;54374;50.196;8.050;2022-09-09T01:28:43;12.90;99.90
9175;DHT22;54374;50.196;8.050;2022-09-09T01:31:17;12.90;99.90
9175;DHT22;54374;50.196;8.050;2022-09-09T01:33:46;13.00;99.90
9175;DHT22;54374;50.196;8.050;2022-09-09T01:36:20;13.00;99.90
9175;DHT22;54374;50.196;8.050;2022-09-09T01:38:51;13.00;99.90
9175;DHT22;54374;50.196;8.050;2022-09-09T01:41:20;12.90;99.90
9175;DHT22;54374;50.196;8.050;2022-09-09T01:44:00;12.90;99.90
9175;DHT22;54374;50.196;8.050;2022-09-09T01:46:29;12.90;99.90
9175;DHT22;54374;50.196;8.050;2022-09-09T01:48:57;12.80;99.90
9175;DHT22;54374;50.196;8.050;2022-09-09T01:51:27;12.90;99.90
9175;DHT22;54374;50.196;8.050;2022-09-09T01:53:55;12.90;99.90
9175;DHT22;54374;50.196;8.050;2022-09-09T01:56:33;12.90;99.90
9175;DHT22;54374;50.196;8.050;2022-09-09T01:59:17;12.90;99.90
9175;DHT22;54374;50.196;8.050;2022-09-09T02:01:59;12.80;99.90
9175;DHT22;54374;50.196;8.050;2022-09-09T02:04:36;12.80;99.90
9175;DHT22;54374;50.196;8.050;2022-09-09T02:07:25;12.80;99.90
9175;DHT22;54374;50.196;8.050;2022-09-09T02:10:01;12.70;99.90
9175;DHT22;54374;50.196;8.050;2022-09-09T02:12:30;12.70;99.90
9175;DHT22;54374;50.196;8.050;2022-09-09T02:15:03;12.70;99.90
9175;DHT22;54374;50.196;8.050;2022-09-09T02:17:41;12.70;99.90
9175;DHT22;54374;50.196;8.050;2022-09-09T02:20:15;12.70;99.90
9175;DHT22;54374;50.196;8.050;2022-09-09T02:22:51;12.80;99.90
9175;DHT22;54374;50.196;8.050;2022-09-09T02:25:22;12.80;99.90
9175;DHT22;54374;50.196;8.050;2022-09-09T02:27:54;12.80;99.90
9175;DHT22;54374;50.196;8.050;2022-09-09T02:30:24;12.90;99.90
9175;DHT22;54374;50.196;8.050;2022-09-09T02:32:56;12.90;99.90
9175;DHT22;54374;50.196;8.050;2022-09-09T02:35:38;12.90;99.90
9175;DHT22;54374;50.196;8.050;2022-09-09T02:38:10;12.90;99.90
9175;DHT22;54374;50.196;8.050;2022-09-09T02:40:42;12.90;99.90
9175;DHT22;54374;50.196;8.050;2022-09-09T02:43:10;12.90;99.90
9175;DHT22;54374;50.196;8.050;2022-09-09T02:45:42;12.90;99.90
9175;DHT22;54374;50.196;8.050;2022-09-09T02:48:20;12.80;99.90
9175;DHT22;54374;50.196;8.050;2022-09-09T02:50:56;12.90;99.90
9175;DHT22;54374;50.196;8.050;2022-09-09T02:53:33;12.90;99.90
9175;DHT22;54374;50.196;8.050;2022-09-09T02:56:07;12.90;99.90
9175;DHT22;54374;50.196;8.050;2022-09-09T02:58:41;12.90;99.90
9175;DHT22;54374;50.196;8.050;2022-09-09T03:01:09;12.80;99.90
9175;DHT22;54374;50.196;8.050;2022-09-09T03:03:36;12.90;99.90
9175;DHT22;54374;50.196;8.050;2022-09-09T03:06:08;12.90;99.90
9175;DHT22;54374;50.196;8.050;2022-09-09T03:08:36;12.90;99.90
9175;DHT22;54374;50.196;8.050;2022-09-09T03:11:03;12.90;99.90
9175;DHT22;54374;50.196;8.050;2022-09-09T03:13:34;12.90;99.90
9175;DHT22;54374;50.196;8.050;2022-09-09T03:16:03;12.90;99.90
9175;DHT22;54374;50.196;8.050;2022-09-09T03:18:35;12.80;99.90
9175;DHT22;54374;50.196;8.050;2022-09-09T03:21:02;12.90;99.90
9175;DHT22;54374;50.196;8.050;2022-09-09T03:23:29;12.90;99.90
9175;DHT22;54374;50.196;8.050;2022-09-09T03:26:00;12.90;99.90
9175;DHT22;54374;50.196;8.050;2022-09-09T03:28:37;12.90;99.90
9175;DHT22;54374;50.196;8.050;2022-09-09T03:31:07;12.90;99.90
9175;DHT22;54374;50.196;8.050;2022-09-09T03:33:39;13.00;99.90
9175;DHT22;54374;50.196;8.050;2022-09-09T03:36:07;13.10;99.90
9175;DHT22;54374;50.196;8.050;2022-09-09T03:38:35;13.10;99.90
9175;DHT22;54374;50.196;8.050;2022-09-09T03:41:02;13.20;99.90
9175;DHT22;54374;50.196;8.050;2022-09-09T03:43:33;13.20;99.90
9175;DHT22;54374;50.196;8.050;2022-09-09T03:46:00;13.20;99.90
9175;DHT22;54374;50.196;8.050;2022-09-09T03:48:30;13.20;99.90
9175;DHT22;54374;50.196;8.050;2022-09-09T03:50:58;13.10;99.90
9175;DHT22;54374;50.196;8.050;2022-09-09T03:53:28;13.20;99.90
9175;DHT22;54374;50.196;8.050;2022-09-09T03:55:56;13.20;99.90
9175;DHT22;54374;50.196;8.050;2022-09-09T03:58:27;13.20;99.90
9175;DHT22;54374;50.196;8.050;2022-09-09T04:01:00;13.20;99.90
9175;DHT22;54374;50.196;8.050;2022-09-09T04:03:30;13.20;99.90
9175;DHT22;54374;50.196;8.050;2022-09-09T04:05:59;13.20;99.90
9175;DHT22;54374;50.196;8.050;2022-09-09T04:08:29;13.20;99.90
9175;DHT22;54374;50.196;8.050;2022-09-09T04:10:58;13.20;99.90
9175;DHT22;54374;50.196;8.050;2022-09-09T04:13:27;13.20;99.90
9175;DHT22;54374;50.196;8.050;2022-09-09T04:15:57;13.20;99.90
9175;DHT22;54374;50.196;8.050;2022-09-09T04:18:25;13.20;99.90
9175;DHT22;54374;50.196;8.050;2022-09-09T04:20:55;13.20;99.90
9175;DHT22;54374;50.196;8.050;2022-09-09T04:23:25;13.20;99.90
9175;DHT22;54374;50.196;8.050;2022-09-09T04:25:55;13.20;99.90
9175;DHT22;54374;50.196;8.050;2022-09-09T04:28:23;13.20;99.90
9175;DHT22;54374;50.196;8.050;2022-09-09T04:30:51;13.20;99.90
9175;DHT22;54374;50.196;8.050;2022-09-09T04:33:19;13.30;99.90
9175;DHT22;54374;50.196;8.050;2022-09-09T04:35:49;13.30;99.90
9175;DHT22;54374;50.196;8.050;2022-09-09T04:38:21;13.20;99.90
9175;DHT22;54374;50.196;8.050;2022-09-09T04:40:51;13.20;99.90
9175;DHT22;54374;50.196;8.050;2022-09-09T04:43:20;13.20;99.90
9175;DHT22;54374;50.196;8.050;2022-09-09T04:45:49;13.10;99.90
9175;DHT22;54374;50.196;8.050;2022-09-09T04:48:19;13.10;99.90
9175;DHT22;54374;50.196;8.050;2022-09-09T04:50:56;13.10;99.90
9175;DHT22;54374;50.196;8.050;2022-09-09T04:53:25;13.00;99.90
9175;DHT22;54374;50.196;8.050;2022-09-09T04:56:01;13.10;99.90
9175;DHT22;54374;50.196;8.050;2022-09-09T04:58:30;13.20;99.90
9175;DHT22;54374;50.196;8.050;2022-09-09T05:01:03;13.10;99.90
9175;DHT22;54374;50.196;8.050;2022-09-09T05:03:31;13.10;99.90
9175;DHT22;54374;50.196;8.050;2022-09-09T05:06:05;13.10;99.90
9175;DHT22;54374;50.196;8.050;2022-09-09T05:08:37;13.10;99.90
9175;DHT22;54374;50.196;8.050;2022-09-09T05:11:13;13.10;99.90
9175;DHT22;54374;50.196;8.050;2022-09-09T05:13:41;13.10;99.90
9175;DHT22;54374;50.196;8.050;2022-09-09T05:16:08;13.10;99.90
9175;DHT22;54374;50.196;8.050;2022-09-09T05:18:37;13.10;99.90
9175;DHT22;54374;50.196;8.050;2022-09-09T05:21:04;13.10;99.90
9175;DHT22;54374;50.196;8.050;2022-09-09T05:23:32;13.20;99.90
9175;DHT22;54374;50.196;8.050;2022-09-09T05:26:01;13.10;99.90
9175;DHT22;54374;50.196;8.050;2022-09-09T05:28:30;13.10;99.90
9175;DHT22;54374;50.196;8.050;2022-09-09T05:30:58;13.10;99.90
9175;DHT22;54374;50.196;8.050;2022-09-09T05:33:27;13.20;99.90
9175;DHT22;54374;50.196;8.050;2022-09-09T05:35:59;13.20;99.90
9175;DHT22;54374;50.196;8.050;2022-09-09T05:38:29;13.30;99.90
9175;DHT22;54374;50.196;8.050;2022-09-09T05:40:56;13.40;99.90
9175;DHT22;54374;50.196;8.050;2022-09-09T05:43:26;13.40;99.90
9175;DHT22;54374;50.196;8.050;2022-09-09T05:46:02;13.50;99.90
9175;DHT22;54374;50.196;8.050;2022-09-09T05:48:31;13.60;99.90
9175;DHT22;54374;50.196;8.050;2022-09-09T05:50:59;13.60;99.90
9175;DHT22;54374;50.196;8.050;2022-09-09T05:53:26;13.60;99.90
9175;DHT22;54374;50.196;8.050;2022-09-09T05:56:01;13.60;99.90
9175;DHT22;54374;50.196;8.050;2022-09-09T05:58:32;13.70;99.90
9175;DHT22;54374;50.196;8.050;2022-09-09T06:01:02;13.70;99.90
9175;DHT22;54374;50.196;8.050;2022-09-09T06:03:30;13.70;99.90
9175;DHT22;54374;50.196;8.050;2022-09-09T06:05:58;13.70;99.90
9175;DHT22;54374;50.196;8.050;2022-09-09T06:08:26;13.80;99.90
9175;DHT22;54374;50.196;8.050;2022-09-09T06:10:53;13.80;99.90
9175;DHT22;54374;50.196;8.050;2022-09-09T06:13:29;13.80;99.90
9175;DHT22;54374;50.196;8.050;2022-09-09T06:15:58;14.10;99.90
9175;DHT22;54374;50.196;8.050;2022-09-09T06:18:27;14.20;99.90
9175;DHT22;54374;50.196;8.050;2022-09-09T06:20:56;14.20;99.90
9175;DHT22;54374;50.196;8.050;2022-09-09T06:23:27;14.50;99.90
9175;DHT22;54374;50.196;8.050;2022-09-09T06:26:02;14.50;99.90
9175;DHT22;54374;50.196;8.050;2022-09-09T06:28:31;14.80;99.90
9175;DHT22;54374;50.196;8.050;2022-09-09T06:31:01;14.90;99.90
9175;DHT22;54374;50.196;8.050;2022-09-09T06:33:31;15.00;99.90
9175;DHT22;54374;50.196;8.050;2022-09-09T06:36:02;15.00;99.90
9175;DHT22;54374;50.196;8.050;2022-09-09T06:38:31;15.10;99.90
9175;DHT22;54374;50.196;8.050;2022-09-09T06:40:59;15.10;99.90
9175;DHT22;54374;50.196;8.050;2022-09-09T06:43:28;15.10;99.90
9175;DHT22;54374;50.196;8.050;2022-09-09T06:45:57;15.10;99.90
9175;DHT22;54374;50.196;8.050;2022-09-09T06:48:26;15.10;99.90
9175;DHT22;54374;50.196;8.050;2022-09-09T06:51:01;15.20;99.90
9175;DHT22;54374;50.196;8.050;2022-09-09T06:53:29;15.30;99.90
9175;DHT22;54374;50.196;8.050;2022-09-09T06:55:59;15.40;99.90
9175;DHT22;54374;50.196;8.050;2022-09-09T06:58:29;15.60;99.90
9175;DHT22;54374;50.196;8.050;2022-09-09T07:01:03;15.60;99.90
9175;DHT22;54374;50.196;8.050;2022-09-09T07:03:31;15.70;99.90
9175;DHT22;54374;50.196;8.050;2022-09-09T07:06:01;15.80;99.90
9175;DHT22;54374;50.196;8.050;2022-09-09T07:08:29;15.80;99.90
9175;DHT22;54374;50.196;8.050;2022-09-09T07:11:02;15.80;99.90
9175;DHT22;54374;50.196;8.050;2022-09-09T07:13:31;15.80;99.90
9175;DHT22;54374;50.196;8.050;2022-09-09T07:16:03;15.80;99.90
9175;DHT22;54374;50.196;8.050;2022-09-09T07:18:32;15.90;99.90
9175;DHT22;54374;50.196;8.050;2022-09-09T07:21:00;15.90;99.90
9175;DHT22;54374;50.196;8.050;2022-09-09T07:23:29;16.10;99.90
9175;DHT22;54374;50.196;8.050;2022-09-09T07:25:56;16.00;99.90
9175;DHT22;54374;50.196;8.050;2022-09-09T07:28:24;16.20;99.90
9175;DHT22;54374;50.196;8.050;2022-09-09T07:30:55;16.30;99.90
9175;DHT22;54374;50.196;8.050;2022-09-09T07:33:23;16.50;99.90
9175;DHT22;54374;50.196;8.050;2022-09-09T07:35:52;16.50;99.90
9175;DHT22;54374;50.196;8.050;2022-09-09T07:38:20;16.60;99.90
9175;DHT22;54374;50.196;8.050;2022-09-09T07:40:48;16.60;99.90
9175;DHT22;54374;50.196;8.050;2022-09-09T07:43:15;16.60;99.90
9175;DHT22;54374;50.196;8.050;2022-09-09T07:45:45;16.60;99.90
9175;DHT22;54374;50.196;8.050;2022-09-09T07:48:13;16.70;99.90
9175;DHT22;54374;50.196;8.050;2022-09-09T07:50:40;16.70;99.90
9175;DHT22;54374;50.196;8.050;2022-09-09T07:53:09;16.70;99.90
9175;DHT22;54374;50.196;8.050;2022-09-09T07:55:36;16.70;99.90
9175;DHT22;54374;50.196;8.050;2022-09-09T07:58:03;16.70;99.90
9175;DHT22;54374;50.196;8.050;2022-09-09T08:00:31;16.80;99.90
9175;DHT22;54374;50.196;8.050;2022-09-09T08:03:00;16.80;99.90
9175;DHT22;54374;50.196;8.050;2022-09-09T08:05:29;16.80;99.90
9175;DHT22;54374;50.196;8.050;2022-09-09T08:07:57;16.80;99.90
9175;DHT22;54374;50.196;8.050;2022-09-09T08:10:25;16.80;99.90
9175;DHT22;54374;50.196;8.050;2022-09-09T08:12:54;16.90;99.90
9175;DHT22;54374;50.196;8.050;2022-09-09T08:15:21;17.10;99.90
9175;DHT22;54374;50.196;8.050;2022-09-09T08:17:49;18.60;99.90
9175;DHT22;54374;50.196;8.050;2022-09-09T08:20:16;17.40;99.90
9175;DHT22;54374;50.196;8.050;2022-09-09T08:22:45;17.50;99.90
9175;DHT22;54374;50.196;8.050;2022-09-09T08:25:13;17.50;99.90
9175;DHT22;54374;50.196;8.050;2022-09-09T08:27:42;17.60;99.90
9175;DHT22;54374;50.196;8.050;2022-09-09T08:30:11;17.50;99.90
9175;DHT22;54374;50.196;8.050;2022-09-09T08:32:39;17.60;99.90
9175;DHT22;54374;50.196;8.050;2022-09-09T08:35:08;17.50;99.90
9175;DHT22;54374;50.196;8.050;2022-09-09T08:37:35;17.50;99.90
9175;DHT22;54374;50.196;8.050;2022-09-09T08:40:03;17.50;99.90
9175;DHT22;54374;50.196;8.050;2022-09-09T08:42:38;17.00;99.90
9175;DHT22;54374;50.196;8.050;2022-09-09T08:45:32;17.80;99.90
9175;DHT22;54374;50.196;8.050;2022-09-09T08:48:15;17.80;99.90
9175;DHT22;54374;50.196;8.050;2022-09-09T08:50:49;17.90;99.90
9175;DHT22;54374;50.196;8.050;2022-09-09T08:53:23;17.90;99.90
9175;DHT22;54374;50.196;8.050;2022-09-09T08:55:55;18.20;99.90
9175;DHT22;54374;50.196;8.050;2022-09-09T08:58:55;18.30;99.90
9175;DHT22;54374;50.196;8.050;2022-09-09T09:01:58;18.40;99.90
9175;DHT22;54374;50.196;8.050;2022-09-09T09:04:47;18.90;99.90
9175;DHT22;54374;50.196;8.050;2022-09-09T09:07:26;19.00;99.90
9175;DHT22;54374;50.196;8.050;2022-09-09T09:10:01;19.10;99.90
9175;DHT22;54374;50.196;8.050;2022-09-09T09:12:40;19.10;99.90
9175;DHT22;54374;50.196;8.050;2022-09-09T09:15:19;19.00;99.90
9175;DHT22;54374;50.196;8.050;2022-09-09T09:17:50;18.80;99.90
9175;DHT22;54374;50.196;8.050;2022-09-09T09:20:23;18.50;99.90
9175;DHT22;54374;50.196;8.050;2022-09-09T09:22:54;18.50;99.90
9175;DHT22;54374;50.196;8.050;2022-09-09T09:25:29;18.40;99.90
9175;DHT22;54374;50.196;8.050;2022-09-09T09:28:00;18.50;99.90
9175;DHT22;54374;50.196;8.050;2022-09-09T09:30:36;18.60;99.90
9175;DHT22;54374;50.196;8.050;2022-09-09T09:33:15;18.60;99.90
9175;DHT22;54374;50.196;8.050;2022-09-09T09:35:44;18.70;99.90
9175;DHT22;54374;50.196;8.050;2022-09-09T09:38:17;18.90;99.90
9175;DHT22;54374;50.196;8.050;2022-09-09T09:40:50;18.90;99.90
9175;DHT22;54374;50.196;8.050;2022-09-09T09:43:23;19.10;99.90
9175;DHT22;54374;50.196;8.050;2022-09-09T09:45:57;19.10;99.90
9175;DHT22;54374;50.196;8.050;2022-09-09T09:48:27;19.50;99.90
9175;DHT22;54374;50.196;8.050;2022-09-09T09:50:56;19.60;99.90
9175;DHT22;54374;50.196;8.050;2022-09-09T09:53:27;19.40;99.90
9175;DHT22;54374;50.196;8.050;2022-09-09T09:55:58;19.30;99.90
9175;DHT22;54374;50.196;8.050;2022-09-09T09:58:30;19.30;99.90
9175;DHT22;54374;50.196;8.050;2022-09-09T10:01:00;19.20;99.90
9175;DHT22;54374;50.196;8.050;2022-09-09T10:03:32;19.20;99.90
9175;DHT22;54374;50.196;8.050;2022-09-09T10:06:04;19.10;99.90
9175;DHT22;54374;50.196;8.050;2022-09-09T10:08:34;19.00;99.90
9175;DHT22;54374;50.196;8.050;2022-09-09T10:11:25;18.90;99.90
9175;DHT22;54374;50.196;8.050;2022-09-09T10:14:02;18.90;99.90
9175;DHT22;54374;50.196;8.050;2022-09-09T10:16:45;19.00;99.90
9175;DHT22;54374;50.196;8.050;2022-09-09T10:19:25;19.00;99.90
9175;DHT22;54374;50.196;8.050;2022-09-09T10:22:04;19.20;99.90
9175;DHT22;54374;50.196;8.050;2022-09-09T10:24:58;19.30;99.90
9175;DHT22;54374;50.196;8.050;2022-09-09T10:27:37;19.30;99.90
9175;DHT22;54374;50.196;8.050;2022-09-09T10:30:14;19.30;99.90
9175;DHT22;54374;50.196;8.050;2022-09-09T10:32:48;19.50;99.90
9175;DHT22;54374;50.196;8.050;2022-09-09T10:35:27;19.40;99.90
9175;DHT22;54374;50.196;8.050;2022-09-09T10:38:16;19.70;99.90
9175;DHT22;54374;50.196;8.050;2022-09-09T10:41:06;19.90;99.90
9175;DHT22;54374;50.196;8.050;2022-09-09T10:43:50;20.00;99.90
9175;DHT22;54374;50.196;8.050;2022-09-09T10:46:25;19.90;99.90
9175;DHT22;54374;50.196;8.050;2022-09-09T10:49:08;19.80;99.90
9175;DHT22;54374;50.196;8.050;2022-09-09T10:51:46;20.10;99.90
9175;DHT22;54374;50.196;8.050;2022-09-09T10:54:28;20.10;99.90
9175;DHT22;54374;50.196;8.050;2022-09-09T10:57:02;20.20;99.90
9175;DHT22;54374;50.196;8.050;2022-09-09T10:59:34;20.00;99.90
9175;DHT22;54374;50.196;8.050;2022-09-09T11:02:15;19.90;99.90
9175;DHT22;54374;50.196;8.050;2022-09-09T11:04:48;19.70;99.90
9175;DHT22;54374;50.196;8.050;2022-09-09T11:07:26;19.60;99.90
9175;DHT22;54374;50.196;8.050;2022-09-09T11:09:59;19.60;99.90
9175;DHT22;54374;50.196;8.050;2022-09-09T11:12:29;19.60;99.90
9175;DHT22;54374;50.196;8.050;2022-09-09T11:15:01;19.50;99.90
9175;DHT22;54374;50.196;8.050;2022-09-09T11:17:37;19.50;99.90
9175;DHT22;54374;50.196;8.050;2022-09-09T11:20:11;19.50;99.90
9175;DHT22;54374;50.196;8.050;2022-09-09T11:22:45;19.60;99.90
9175;DHT22;54374;50.196;8.050;2022-09-09T11:25:16;19.70;99.90
9175;DHT22;54374;50.196;8.050;2022-09-09T11:27:55;19.70;99.90
9175;DHT22;54374;50.196;8.050;2022-09-09T11:30:35;19.60;99.90
9175;DHT22;54374;50.196;8.050;2022-09-09T11:33:48;19.70;99.90
9175;DHT22;54374;50.196;8.050;2022-09-09T11:36:35;19.50;99.90
9175;DHT22;54374;50.196;8.050;2022-09-09T11:39:24;19.40;99.90
9175;DHT22;54374;50.196;8.050;2022-09-09T11:42:06;19.40;99.90
9175;DHT22;54374;50.196;8.050;2022-09-09T11:44:33;19.50;99.90
9175;DHT22;54374;50.196;8.050;2022-09-09T11:47:01;19.50;99.90
9175;DHT22;54374;50.196;8.050;2022-09-09T11:49:38;19.60;99.90
9175;DHT22;54374;50.196;8.050;2022-09-09T11:52:11;19.60;99.90
9175;DHT22;54374;50.196;8.050;2022-09-09T11:54:47;19.40;99.90
9175;DHT22;54374;50.196;8.050;2022-09-09T11:57:26;19.40;99.90
9175;DHT22;54374;50.196;8.050;2022-09-09T11:59:54;19.60;99.90
9175;DHT22;54374;50.196;8.050;2022-09-09T12:02:24;19.70;99.90
9175;DHT22;54374;50.196;8.050;2022-09-09T12:04:56;20.00;99.90
9175;DHT22;54374;50.196;8.050;2022-09-09T12:07:32;20.20;99.90
9175;DHT22;54374;50.196;8.050;2022-09-09T12:10:05;20.10;99.90
9175;DHT22;54374;50.196;8.050;2022-09-09T12:12:34;20.10;99.90
9175;DHT22;54374;50.196;8.050;2022-09-09T12:15:19;20.10;99.90
9175;DHT22;54374;50.196;8.050;2022-09-09T12:17:48;20.20;99.90
9175;DHT22;54374;50.196;8.050;2022-09-09T12:20:19;20.30;99.90
9175;DHT22;54374;50.196;8.050;2022-09-09T12:25:57;20.60;99.90
9175;DHT22;54374;50.196;8.050;2022-09-09T12:28:32;20.60;99.90
9175;DHT22;54374;50.196;8.050;2022-09-09T12:31:07;20.80;99.90
9175;DHT22;54374;50.196;8.050;2022-09-09T12:33:37;20.80;99.90
9175;DHT22;54374;50.196;8.050;2022-09-09T12:36:12;20.60;99.90
9175;DHT22;54374;50.196;8.050;2022-09-09T12:38:41;20.60;99.90
9175;DHT22;54374;50.196;8.050;2022-09-09T12:41:19;20.70;99.90
9175;DHT22;54374;50.196;8.050;2022-09-09T12:43:46;20.60;99.90
9175;DHT22;54374;50.196;8.050;2022-09-09T12:46:21;20.60;99.90
9175;DHT22;54374;50.196;8.050;2022-09-09T12:48:49;20.60;99.90
9175;DHT22;54374;50.196;8.050;2022-09-09T12:51:23;20.40;99.90
9175;DHT22;54374;50.196;8.050;2022-09-09T12:53:51;20.30;99.90
9175;DHT22;54374;50.196;8.050;2022-09-09T12:56:21;20.30;99.90
9175;DHT22;54374;50.196;8.050;2022-09-09T12:58:52;20.20;99.90
9175;DHT22;54374;50.196;8.050;2022-09-09T13:01:23;20.30;99.90
9175;DHT22;54374;50.196;8.050;2022-09-09T13:03:50;20.30;99.90
9175;DHT22;54374;50.196;8.050;2022-09-09T13:06:21;20.40;99.90
9175;DHT22;54374;50.196;8.050;2022-09-09T13:11:22;20.20;99.90
9175;DHT22;54374;50.196;8.050;2022-09-09T13:13:53;20.20;99.90
9175;DHT22;54374;50.196;8.050;2022-09-09T13:16:24;20.10;99.90
9175;DHT22;54374;50.196;8.050;2022-09-09T13:18:53;20.00;99.90
9175;DHT22;54374;50.196;8.050;2022-09-09T13:21:31;19.90;99.90
9175;DHT22;54374;50.196;8.050;2022-09-09T13:24:00;19.90;99.90
9175;DHT22;54374;50.196;8.050;2022-09-09T13:26:30;19.90;99.90
9175;DHT22;54374;50.196;8.050;2022-09-09T13:29:17;19.80;99.90
9175;DHT22;54374;50.196;8.050;2022-09-09T13:31:45;19.70;99.90
9175;DHT22;54374;50.196;8.050;2022-09-09T13:34:12;19.70;99.90
9175;DHT22;54374;50.196;8.050;2022-09-09T13:36:40;19.70;99.90
9175;DHT22;54374;50.196;8.050;2022-09-09T13:39:15;19.60;99.90
9175;DHT22;54374;50.196;8.050;2022-09-09T13:41:46;19.60;99.90
9175;DHT22;54374;50.196;8.050;2022-09-09T13:44:19;19.40;99.90
9175;DHT22;54374;50.196;8.050;2022-09-09T13:47:00;19.30;99.90
9175;DHT22;54374;50.196;8.050;2022-09-09T13:49:29;19.00;99.90
9175;DHT22;54374;50.196;8.050;2022-09-09T13:52:04;19.00;99.90
9175;DHT22;54374;50.196;8.050;2022-09-09T13:54:33;18.90;99.90
9175;DHT22;54374;50.196;8.050;2022-09-09T13:57:02;18.80;99.90
9175;DHT22;54374;50.196;8.050;2022-09-09T13:59:30;18.80;99.90
9175;DHT22;54374;50.196;8.050;2022-09-09T14:01:58;18.60;99.90
9175;DHT22;54374;50.196;8.050;2022-09-09T14:04:28;18.50;99.90
9175;DHT22;54374;50.196;8.050;2022-09-09T14:06:56;18.10;99.90
9175;DHT22;54374;50.196;8.050;2022-09-09T14:09:23;17.80;99.90
9175;DHT22;54374;50.196;8.050;2022-09-09T14:11:50;17.40;99.90
9175;DHT22;54374;50.196;8.050;2022-09-09T14:14:19;17.40;99.90
9175;DHT22;54374;50.196;8.050;2022-09-09T14:16:46;17.10;99.90
9175;DHT22;54374;50.196;8.050;2022-09-09T14:19:13;17.20;99.90
9175;DHT22;54374;50.196;8.050;2022-09-09T14:21:40;17.20;99.90
9175;DHT22;54374;50.196;8.050;2022-09-09T14:24:08;17.40;99.90
9175;DHT22;54374;50.196;8.050;2022-09-09T14:26:35;17.40;99.90
9175;DHT22;54374;50.196;8.050;2022-09-09T14:29:02;17.50;99.90
9175;DHT22;54374;50.196;8.050;2022-09-09T14:31:33;17.70;99.90
9175;DHT22;54374;50.196;8.050;2022-09-09T14:34:00;17.80;99.90
9175;DHT22;54374;50.196;8.050;2022-09-09T14:36:27;18.10;99.90
9175;DHT22;54374;50.196;8.050;2022-09-09T14:38:54;18.10;99.90
9175;DHT22;54374;50.196;8.050;2022-09-09T14:41:21;18.10;99.90
9175;DHT22;54374;50.196;8.050;2022-09-09T14:43:49;18.10;99.90
9175;DHT22;54374;50.196;8.050;2022-09-09T14:46:18;18.10;99.90
9175;DHT22;54374;50.196;8.050;2022-09-09T14:48:47;18.10;99.90
9175;DHT22;54374;50.196;8.050;2022-09-09T14:51:17;18.00;99.90
9175;DHT22;54374;50.196;8.050;2022-09-09T14:53:46;18.10;99.90
9175;DHT22;54374;50.196;8.050;2022-09-09T14:56:15;18.00;99.90
9175;DHT22;54374;50.196;8.050;2022-09-09T14:58:42;18.00;99.90
9175;DHT22;54374;50.196;8.050;2022-09-09T15:01:11;17.90;99.90
9175;DHT22;54374;50.196;8.050;2022-09-09T15:03:39;17.90;99.90
9175;DHT22;54374;50.196;8.050;2022-09-09T15:06:10;17.80;99.90
9175;DHT22;54374;50.196;8.050;2022-09-09T15:08:38;17.60;99.90
9175;DHT22;54374;50.196;8.050;2022-09-09T15:11:06;17.60;99.90
9175;DHT22;54374;50.196;8.050;2022-09-09T15:13:34;17.50;99.90
9175;DHT22;54374;50.196;8.050;2022-09-09T15:16:06;17.40;99.90
9175;DHT22;54374;50.196;8.050;2022-09-09T15:18:34;17.40;99.90
9175;DHT22;54374;50.196;8.050;2022-09-09T15:21:02;17.20;99.90
9175;DHT22;54374;50.196;8.050;2022-09-09T15:23:34;17.20;99.90
9175;DHT22;54374;50.196;8.050;2022-09-09T15:26:02;17.30;99.90
9175;DHT22;54374;50.196;8.050;2022-09-09T15:28:31;17.30;99.90
9175;DHT22;54374;50.196;8.050;2022-09-09T15:31:05;17.20;99.90
9175;DHT22;54374;50.196;8.050;2022-09-09T15:33:33;17.10;99.90
9175;DHT22;54374;50.196;8.050;2022-09-09T15:36:13;17.10;99.90
9175;DHT22;54374;50.196;8.050;2022-09-09T15:38:42;17.10;99.90
9175;DHT22;54374;50.196;8.050;2022-09-09T15:41:09;17.00;99.90
9175;DHT22;54374;50.196;8.050;2022-09-09T15:43:37;17.00;99.90
